Time;durP1;ratioP1;P1;durP2;ratioP2;P2;SDS_P1;SDS_P2;PMS_P1;PMS_P2;Temp;Humidity;BMP_temperature;BMP_pressure;BME280_temperature;BME280_humidity;BME280_pressure;Samples;Min_cycle;Max_cycle;Signal;HPM_P1;HPM_P2
2023/11/19 00:01:32;;;;;;;0.30;0.30;;;;;;;-144.99;100.00;67352.69;5076136;28;20177;-78
2023/11/19 00:03:58;;;;;;;0.20;0.20;;;;;;;-144.99;100.00;67352.69;5094310;28;20209;-76
2023/11/19 00:06:23;;;;;;;0.10;0.10;;;;;;;-144.99;100.00;67352.69;5093934;28;20193;-77
2023/11/19 00:08:50;;;;;;;0.40;0.40;;;;;;;-144.99;100.00;67352.69;5094102;28;20259;-77
2023/11/19 00:11:15;;;;;;;0.10;0.10;;;;;;;-144.99;100.00;67352.69;5094240;28;20196;-76
2023/11/19 00:13:40;;;;;;;0.37;0.37;;;;;;;-144.99;100.00;67352.69;5094232;28;20178;-77
2023/11/19 00:16:07;;;;;;;1.13;0.33;;;;;;;-144.99;100.00;67352.69;5075716;28;20650;-78
2023/11/19 00:18:32;;;;;;;0.37;0.30;;;;;;;-144.99;100.00;67352.69;5094192;28;20604;-76
2023/11/19 00:20:58;;;;;;;0.30;0.30;;;;;;;-144.99;100.00;67352.69;5076208;28;20217;-77
2023/11/19 00:23:23;;;;;;;0.40;0.40;;;;;;;-144.99;100.00;67352.69;5093682;28;20213;-77
2023/11/19 00:25:48;;;;;;;0.20;0.20;;;;;;;-144.99;100.00;67352.69;5075979;28;20273;-78
2023/11/19 00:28:14;;;;;;;0.30;0.30;;;;;;;-144.99;100.00;67352.69;5094630;28;20189;-77
2023/11/19 00:30:41;;;;;;;0.03;0.03;;;;;;;-144.99;100.00;67352.69;5094484;28;20188;-77
2023/11/19 00:33:06;;;;;;;0.20;0.20;;;;;;;-144.99;100.00;67352.69;5075635;28;20268;-77
2023/11/19 00:35:32;;;;;;;0.40;0.40;;;;;;;-144.99;100.00;67352.69;5076512;28;20677;-78
2023/11/19 00:37:58;;;;;;;0.30;0.30;;;;;;;-144.99;100.00;67352.69;5094303;28;20540;-77
2023/11/19 00:40:23;;;;;;;0.00;0.00;;;;;;;-144.99;100.00;67352.69;5094604;28;20173;-77
2023/11/19 00:42:50;;;;;;;0.30;0.30;;;;;;;-144.99;100.00;67352.69;5094943;28;20188;-77
2023/11/19 00:45:15;;;;;;;0.10;0.10;;;;;;;-144.99;100.00;67352.69;5094085;28;20208;-78
2023/11/19 00:47:41;;;;;;;0.83;0.30;;;;;;;-144.99;100.00;67352.69;5094595;28;20178;-77
2023/11/19 00:50:10;;;;;;;0.10;0.07;;;;;;;-144.99;100.00;67352.69;5094529;28;20227;-77
2023/11/19 00:52:37;;;;;;;0.00;0.00;;;;;;;-144.99;100.00;67352.69;5076161;28;20192;-78
2023/11/19 00:55:02;;;;;;;0.00;0.00;;;;;;;-144.99;100.00;67352.69;5076387;28;20209;-77
2023/11/19 00:57:28;;;;;;;0.17;0.17;;;;;;;-144.99;100.00;67352.69;5094457;28;20173;-77
2023/11/19 00:59:53;;;;;;;0.10;0.10;;;;;;;-144.99;100.00;67352.69;5095212;28;20173;-78
2023/11/19 01:02:18;;;;;;;0.40;0.40;;;;;;;-144.99;100.00;67352.69;5094379;28;20181;-78
2023/11/19 01:04:44;;;;;;;0.00;0.00;;;;;;;-144.99;100.00;67352.69;5094083;28;20662;-76
2023/11/19 01:07:12;;;;;;;0.27;0.20;;;;;;;-144.99;100.00;67352.69;5077055;28;20177;-77
2023/11/19 01:09:38;;;;;;;0.20;0.20;;;;;;;-144.99;100.00;67352.69;5095130;28;20715;-77
2023/11/19 01:12:04;;;;;;;0.00;0.00;;;;;;;-144.99;100.00;67352.69;5076622;28;20177;-77
2023/11/19 01:14:30;;;;;;;0.00;0.00;;;;;;;-144.99;100.00;67352.69;5076934;28;20198;-77
2023/11/19 01:16:55;;;;;;;0.00;0.00;;;;;;;-144.99;100.00;67352.69;5094771;28;20315;-77
2023/11/19 01:19:22;;;;;;;0.27;0.27;;;;;;;-144.99;100.00;67352.69;5095456;28;20445;-78
2023/11/19 01:21:47;;;;;;;0.20;0.20;;;;;;;-144.99;100.00;67352.69;5094928;28;20615;-78
2023/11/19 01:24:14;;;;;;;0.10;0.10;;;;;;;-144.99;100.00;67352.69;5094452;28;20205;-77
2023/11/19 01:26:44;;;;;;;0.00;0.00;;;;;;;-144.99;100.00;67352.69;5076323;28;20181;-78
2023/11/19 01:29:13;;;;;;;0.00;0.00;;;;;;;-144.99;100.00;67352.69;5083726;28;20213;-77
2023/11/19 01:31:43;;;;;;;0.10;0.10;;;;;;;-144.99;100.00;67352.69;5087473;28;20273;-76
2023/11/19 01:34:08;;;;;;;0.00;0.00;;;;;;;-144.99;100.00;67352.69;5080515;28;20198;-77
2023/11/19 01:36:34;;;;;;;0.00;0.00;;;;;;;-144.99;100.00;67352.69;5074466;28;20317;-78
2023/11/19 01:39:00;;;;;;;0.20;0.20;;;;;;;-144.99;100.00;67352.69;5092804;28;20635;-78
2023/11/19 01:41:26;;;;;;;0.00;0.00;;;;;;;-144.99;100.00;67352.69;5093606;28;20185;-78
2023/11/19 01:43:52;;;;;;;0.00;0.00;;;;;;;-144.99;100.00;67352.69;5076386;28;20582;-78
2023/11/19 01:46:17;;;;;;;0.10;0.10;;;;;;;-144.99;100.00;67352.69;5075238;28;20199;-78
2023/11/19 01:48:45;;;;;;;0.30;0.30;;;;;;;-144.99;100.00;67352.69;5074371;28;20178;-78
2023/11/19 01:51:12;;;;;;;0.00;0.00;;;;;;;-144.99;100.00;67352.69;5075863;28;20536;-78
2023/11/19 01:53:39;;;;;;;0.10;0.10;;;;;;;-144.99;100.00;67352.69;5077352;28;20181;-77
2023/11/19 01:56:08;;;;;;;0.30;0.30;;;;;;;-144.99;100.00;67352.69;5076756;28;20253;-78
2023/11/19 01:58:35;;;;;;;0.13;0.13;;;;;;;-144.99;100.00;67352.69;5095063;28;20184;-77
2023/11/19 02:01:03;;;;;;;0.20;0.20;;;;;;;-144.99;100.00;67352.69;5095139;28;20177;-78
2023/11/19 02:03:33;;;;;;;0.00;0.00;;;;;;;-144.99;100.00;67352.69;5077570;28;20227;-77
2023/11/19 02:06:00;;;;;;;4.27;0.10;;;;;;;-144.99;100.00;67352.69;5092687;28;20240;-78
2023/11/19 02:08:26;;;;;;;0.10;0.10;;;;;;;-144.99;100.00;67352.69;5092697;28;20269;-77
2023/11/19 02:10:51;;;;;;;0.10;0.10;;;;;;;-144.99;100.00;67352.69;5092675;28;20573;-77
2023/11/19 02:13:17;;;;;;;0.00;0.00;;;;;;;-144.99;100.00;67352.69;5092413;28;20181;-77
2023/11/19 02:15:43;;;;;;;0.03;0.03;;;;;;;-144.99;100.00;67352.69;5092146;28;20193;-77
2023/11/19 02:18:29;;;;;;;0.07;0.07;;;;;;;-144.99;100.00;67352.69;5092349;28;20201;-77
2023/11/19 02:20:56;;;;;;;0.00;0.00;;;;;;;-144.99;100.00;67352.69;5092885;28;20178;-78
2023/11/19 02:23:22;;;;;;;0.10;0.10;;;;;;;-144.99;100.00;67352.69;5109756;22;20666;-76
2023/11/19 02:25:58;;;;;;;0.00;0.00;;;;;;;-144.99;100.00;67352.69;5095194;28;20206;-75
2023/11/19 02:28:24;;;;;;;1.40;0.20;;;;;;;-144.99;100.00;67352.69;5075953;28;20242;-76
2023/11/19 02:30:49;;;;;;;0.27;0.27;;;;;;;-144.99;100.00;67352.69;5095315;28;20268;-75
2023/11/19 02:33:15;;;;;;;0.10;0.10;;;;;;;-144.99;100.00;67352.69;5095282;28;20185;-75
2023/11/19 02:35:40;;;;;;;0.00;0.00;;;;;;;-144.99;100.00;67352.69;5095272;28;20246;-76
2023/11/19 02:38:07;;;;;;;0.10;0.10;;;;;;;-144.99;100.00;67352.69;5076907;28;20182;-75
2023/11/19 02:40:32;;;;;;;0.10;0.10;;;;;;;-144.99;100.00;67352.69;5095171;28;20564;-75
2023/11/19 02:42:57;;;;;;;0.00;0.00;;;;;;;-144.99;100.00;67352.69;5094967;28;20190;-75
2023/11/19 02:45:23;;;;;;;0.20;0.20;;;;;;;-144.99;100.00;67352.69;5094950;28;20669;-75
2023/11/19 02:47:49;;;;;;;0.30;0.30;;;;;;;-144.99;100.00;67352.69;5095071;28;20254;-75
2023/11/19 02:50:15;;;;;;;0.10;0.10;;;;;;;-144.99;100.00;67352.69;5097903;28;20633;-75
2023/11/19 02:52:42;;;;;;;0.07;0.07;;;;;;;-144.99;100.00;67352.69;5100623;28;20196;-75
2023/11/19 02:55:12;;;;;;;0.10;0.10;;;;;;;-144.99;100.00;67352.69;5094809;28;20233;-76
2023/11/19 02:57:48;;;;;;;0.10;0.10;;;;;;;-144.99;100.00;67352.69;5094763;28;20185;-75
2023/11/19 03:00:18;;;;;;;0.23;0.23;;;;;;;-144.99;100.00;67352.69;5094634;28;20239;-75
2023/11/19 03:02:48;;;;;;;0.10;0.10;;;;;;;-144.99;100.00;67352.69;5094747;28;20186;-76
2023/11/19 03:05:14;;;;;;;0.10;0.10;;;;;;;-144.99;100.00;67352.69;5094917;28;20593;-76
2023/11/19 03:07:43;;;;;;;0.10;0.10;;;;;;;-144.99;100.00;67352.69;5094697;28;20227;-76
2023/11/19 03:10:13;;;;;;;0.03;0.03;;;;;;;-144.99;100.00;67352.69;5094644;28;20185;-76
2023/11/19 03:12:39;;;;;;;0.37;0.37;;;;;;;-144.99;100.00;67352.69;5094604;28;20723;-76
2023/11/19 03:15:05;;;;;;;0.50;0.33;;;;;;;-144.99;100.00;67352.69;5094433;28;20213;-75
2023/11/19 03:17:31;;;;;;;0.30;0.30;;;;;;;-144.99;100.00;67352.69;5094443;28;20185;-76
2023/11/19 03:19:56;;;;;;;0.40;0.40;;;;;;;-144.99;100.00;67352.69;5094514;28;20211;-75
2023/11/19 03:22:21;;;;;;;0.10;0.10;;;;;;;-144.99;100.00;67352.69;5094311;28;20189;-76
2023/11/19 03:24:47;;;;;;;0.30;0.30;;;;;;;-144.99;100.00;67352.69;5094223;28;20214;-76
2023/11/19 03:27:12;;;;;;;0.20;0.20;;;;;;;-144.99;100.00;67352.69;5094122;28;20189;-76
2023/11/19 03:29:38;;;;;;;0.30;0.30;;;;;;;-144.99;100.00;67352.69;5075127;28;20638;-76
2023/11/19 03:32:04;;;;;;;0.30;0.30;;;;;;;-144.99;100.00;67352.69;5094104;28;20185;-76
2023/11/19 03:34:29;;;;;;;0.80;0.80;;;;;;;-144.99;100.00;67352.69;5093654;28;20332;-75
2023/11/19 03:36:55;;;;;;;0.00;0.00;;;;;;;-144.99;100.00;67352.69;5094071;28;20642;-75
2023/11/19 03:39:24;;;;;;;0.27;0.17;;;;;;;-144.99;100.00;67352.69;5094113;28;20247;-75
2023/11/19 03:41:50;;;;;;;0.20;0.10;;;;;;;-144.99;100.00;67352.69;5094052;28;20198;-75
2023/11/19 03:44:15;;;;;;;0.30;0.30;;;;;;;-144.99;100.00;67352.69;5093615;28;20221;-76
2023/11/19 03:46:40;;;;;;;0.10;0.10;;;;;;;-144.99;100.00;67352.69;5093859;28;20206;-76
2023/11/19 03:49:06;;;;;;;1.50;0.37;;;;;;;-144.99;100.00;67352.69;5112355;28;20195;-76
2023/11/19 03:51:32;;;;;;;0.20;0.20;;;;;;;-144.99;100.00;67352.69;5114267;28;20177;-75
2023/11/19 03:53:58;;;;;;;0.30;0.30;;;;;;;-144.99;100.00;67352.69;5114142;28;20249;-76
2023/11/19 03:56:24;;;;;;;1.23;0.20;;;;;;;-144.99;100.00;67352.69;5114023;28;20185;-75
2023/11/19 03:58:49;;;;;;;3.57;0.23;;;;;;;-144.99;100.00;67352.69;5112068;28;20526;-76
2023/11/19 04:01:14;;;;;;;0.30;0.30;;;;;;;-144.99;100.00;67352.69;5093689;28;20196;-75
2023/11/19 04:03:40;;;;;;;0.10;0.10;;;;;;;-144.99;100.00;67352.69;5093501;28;20198;-75
2023/11/19 04:06:05;;;;;;;0.30;0.30;;;;;;;-144.99;100.00;67352.69;5093415;28;20606;-76
2023/11/19 04:08:31;;;;;;;0.30;0.30;;;;;;;-144.99;100.00;67352.69;5093609;28;20178;-76
2023/11/19 04:10:56;;;;;;;0.10;0.10;;;;;;;-144.99;100.00;67352.69;5093555;28;20188;-76
2023/11/19 04:13:22;;;;;;;0.57;0.57;;;;;;;-144.99;100.00;67352.69;5093529;28;20682;-76
2023/11/19 04:15:49;;;;;;;0.70;0.27;;;;;;;-144.99;100.00;67352.69;5075155;28;20233;-76
2023/11/19 04:18:14;;;;;;;0.20;0.20;;;;;;;-144.99;100.00;67352.69;5093404;28;20182;-76
2023/11/19 04:20:42;;;;;;;0.63;0.63;;;;;;;-144.99;100.00;67352.69;5093402;28;20189;-75
2023/11/19 04:23:07;;;;;;;0.63;0.63;;;;;;;-144.99;100.00;67352.69;5093022;28;20237;-76
2023/11/19 04:25:33;;;;;;;0.73;0.53;;;;;;;-144.99;100.00;67352.69;5093166;28;20256;-75
2023/11/19 04:27:58;;;;;;;0.50;0.50;;;;;;;-144.99;100.00;67352.69;5093069;28;20186;-76
2023/11/19 04:30:23;;;;;;;0.37;0.23;;;;;;;-144.99;100.00;67352.69;5093269;28;20193;-76
2023/11/19 04:32:49;;;;;;;0.37;0.37;;;;;;;-144.99;100.00;67352.69;5093199;28;20242;-75
2023/11/19 04:35:14;;;;;;;0.87;0.87;;;;;;;-144.99;100.00;67352.69;5074705;28;20216;-76
2023/11/19 04:37:41;;;;;;;1.70;1.60;;;;;;;-144.99;100.00;67352.69;5092967;28;20611;-76
2023/11/19 04:40:07;;;;;;;5.40;1.93;;;;;;;-144.99;100.00;67352.69;5094714;28;20547;-76
2023/11/19 04:42:33;;;;;;;11.73;2.27;;;;;;;-144.99;100.00;67352.69;5099695;28;20188;-76
2023/11/19 04:44:58;;;;;;;0.33;0.33;;;;;;;-144.99;100.00;67352.69;5091948;28;20677;-76
2023/11/19 04:47:23;;;;;;;2.00;0.90;;;;;;;-144.99;100.00;67352.69;5092813;28;20195;-76
2023/11/19 04:49:49;;;;;;;0.77;0.70;;;;;;;-144.99;100.00;67352.69;5093313;28;20260;-76
2023/11/19 04:52:14;;;;;;;0.90;0.90;;;;;;;-144.99;100.00;67352.69;5092641;28;20190;-76
2023/11/19 04:54:43;;;;;;;9.80;0.70;;;;;;;-144.99;100.00;67352.69;5074529;28;20314;-76
2023/11/19 04:57:10;;;;;;;1.50;0.93;;;;;;;-144.99;100.00;67352.69;5074221;28;20188;-76
2023/11/19 04:59:36;;;;;;;0.90;0.90;;;;;;;-144.99;100.00;67352.69;5092656;28;20182;-76
2023/11/19 05:02:01;;;;;;;2.80;1.63;;;;;;;-144.99;100.00;67352.69;5092579;28;20230;-76
2023/11/19 05:04:27;;;;;;;1.57;1.30;;;;;;;-144.99;100.00;67352.69;5092293;28;20222;-76
2023/11/19 05:06:53;;;;;;;1.30;1.20;;;;;;;-144.99;100.00;67352.69;5092410;28;20198;-76
2023/11/19 05:09:18;;;;;;;0.80;0.80;;;;;;;-144.99;100.00;67352.69;5092489;28;20213;-76
2023/11/19 05:11:43;;;;;;;0.73;0.73;;;;;;;-144.99;100.00;67352.69;5092436;28;20268;-76
2023/11/19 05:14:09;;;;;;;0.83;0.83;;;;;;;-144.99;100.00;67352.69;5092205;28;20232;-76
2023/11/19 05:16:35;;;;;;;2.60;2.03;;;;;;;-144.99;100.00;67352.69;5092212;28;20181;-76
2023/11/19 05:19:00;;;;;;;8.33;1.47;;;;;;;-144.99;100.00;67352.69;5092209;28;20618;-76
2023/11/19 05:21:26;;;;;;;1.17;0.70;;;;;;;-144.99;100.00;67352.69;5074046;28;20192;-76
2023/11/19 05:23:51;;;;;;;0.47;0.47;;;;;;;-144.99;100.00;67352.69;5092021;28;20267;-76
2023/11/19 05:26:21;;;;;;;0.30;0.30;;;;;;;-144.99;100.00;67352.69;5092033;28;20273;-76
2023/11/19 05:28:47;;;;;;;4.63;1.60;;;;;;;-144.99;100.00;67352.69;5092138;28;20234;-76
2023/11/19 05:31:12;;;;;;;1.50;1.40;;;;;;;-144.99;100.00;67352.69;5073892;28;20186;-76
2023/11/19 05:33:37;;;;;;;0.87;0.50;;;;;;;-144.99;100.00;67352.69;5073755;28;20649;-76
2023/11/19 05:36:04;;;;;;;4.73;1.27;;;;;;;-144.99;100.00;67352.69;5091869;28;20186;-76
2023/11/19 05:38:29;;;;;;;1.30;1.23;;;;;;;-144.99;100.00;67352.69;5105250;28;20714;-76
2023/11/19 05:40:55;;;;;;;0.97;0.97;;;;;;;-144.99;100.00;67352.69;5112396;28;20180;-76
2023/11/19 05:43:21;;;;;;;5.20;0.97;;;;;;;-144.99;100.00;67352.69;5112208;28;20207;-76
2023/11/19 05:45:46;;;;;;;1.30;1.20;;;;;;;-144.99;100.00;67352.69;5112075;28;20284;-76
2023/11/19 05:48:12;;;;;;;7.37;1.77;;;;;;;-144.99;100.00;67352.69;5112232;28;20176;-76
2023/11/19 05:50:38;;;;;;;1.53;1.27;;;;;;;-144.99;100.00;67352.69;5094092;28;20191;-77
2023/11/19 05:53:05;;;;;;;1.27;1.13;;;;;;;-144.99;100.00;67352.69;5112267;28;20173;-76
2023/11/19 05:55:34;;;;;;;0.80;0.80;;;;;;;-144.99;100.00;67352.69;5110974;28;20196;-76
2023/11/19 05:57:59;;;;;;;2.40;1.20;;;;;;;-144.99;100.00;67352.69;5095171;28;20192;-77
2023/11/19 06:00:26;;;;;;;3.37;1.90;;;;;;;-144.99;100.00;67352.69;5116523;28;20177;-76
2023/11/19 06:02:52;;;;;;;2.47;1.40;;;;;;;-144.99;100.00;67352.69;5116284;28;20193;-76
2023/11/19 06:05:17;;;;;;;1.30;1.23;;;;;;;-144.99;100.00;67352.69;5116258;28;20673;-77
2023/11/19 06:07:43;;;;;;;1.90;1.33;;;;;;;-144.99;100.00;67352.69;5116355;28;20180;-76
2023/11/19 06:10:09;;;;;;;5.53;1.70;;;;;;;-144.99;100.00;67352.69;5116322;28;20184;-76
2023/11/19 06:12:37;;;;;;;2.77;2.33;;;;;;;-144.99;100.00;67352.69;5098000;28;20681;-77
2023/11/19 06:15:08;;;;;;;5.53;2.23;;;;;;;-144.99;100.00;67352.69;5116106;28;20280;-76
2023/11/19 06:17:33;;;;;;;5.93;2.23;;;;;;;-144.99;100.00;67352.69;5116173;28;20653;-76
2023/11/19 06:19:58;;;;;;;4.37;3.43;;;;;;;-144.99;100.00;67352.69;5116433;28;20255;-76
2023/11/19 06:22:24;;;;;;;7.50;3.83;;;;;;;-144.99;100.00;67352.69;5117162;28;20192;-77
2023/11/19 06:24:49;;;;;;;4.50;2.80;;;;;;;-144.99;100.00;67352.69;5098645;28;20215;-76
2023/11/19 06:27:14;;;;;;;2.97;2.63;;;;;;;-144.99;100.00;67352.69;5113055;28;20190;-76
2023/11/19 06:29:40;;;;;;;8.77;4.43;;;;;;;-144.99;100.00;67352.69;5110396;28;20241;-76
2023/11/19 06:32:07;;;;;;;9.60;4.70;;;;;;;-144.99;100.00;67352.69;5115659;28;20184;-76
2023/11/19 06:34:33;;;;;;;5.23;3.50;;;;;;;-144.99;100.00;67352.69;5097983;28;20692;-76
2023/11/19 06:36:58;;;;;;;9.37;3.27;;;;;;;-144.99;100.00;67352.69;5116576;28;20173;-76
2023/11/19 06:39:24;;;;;;;15.97;4.33;;;;;;;-144.99;100.00;67352.69;5116391;28;20265;-76
2023/11/19 06:41:50;;;;;;;9.77;3.20;;;;;;;-144.99;100.00;67352.69;5107485;28;20601;-76
2023/11/19 06:44:15;;;;;;;6.27;2.97;;;;;;;-144.99;100.00;67352.69;5115708;28;20216;-77
2023/11/19 06:46:40;;;;;;;19.23;4.03;;;;;;;-144.99;100.00;67352.69;5115396;28;20205;-76
2023/11/19 06:49:07;;;;;;;11.10;2.63;;;;;;;-144.99;100.00;67352.69;5090408;28;20201;-77
2023/11/19 06:51:33;;;;;;;8.97;2.47;;;;;;;-144.99;100.00;67352.69;5115783;28;20177;-77
2023/11/19 06:53:59;;;;;;;4.70;3.23;;;;;;;-144.99;100.00;67352.69;5097338;28;20197;-76
2023/11/19 06:56:25;;;;;;;15.50;3.63;;;;;;;-144.99;100.00;67352.69;5115506;28;20177;-76
2023/11/19 06:58:51;;;;;;;7.90;4.70;;;;;;;-144.99;100.00;67352.69;5108438;28;20221;-77
2023/11/19 07:01:18;;;;;;;6.27;3.07;;;;;;;-144.99;100.00;67352.69;5095057;28;20235;-76
2023/11/19 07:03:44;;;;;;;9.00;3.00;;;;;;;-144.99;100.00;67352.69;5076566;28;20568;-76
2023/11/19 07:06:10;;;;;;;8.07;3.63;;;;;;;-144.99;100.00;67352.69;5094822;28;20193;-77
2023/11/19 07:08:36;;;;;;;5.60;3.20;;;;;;;-144.99;100.00;67352.69;5094407;28;20181;-77
2023/11/19 07:11:02;;;;;;;3.73;2.10;;;;;;;-144.99;100.00;67352.69;5076630;28;20192;-76
2023/11/19 07:13:27;;;;;;;11.93;4.00;;;;;;;-144.99;100.00;67352.69;5095174;28;20220;-77
2023/11/19 07:15:54;;;;;;;8.07;2.77;;;;;;;-144.99;100.00;67352.69;5076750;28;20181;-77
2023/11/19 07:18:21;;;;;;;4.70;2.73;;;;;;;-144.99;100.00;67352.69;5077212;28;20651;-76
2023/11/19 07:20:47;;;;;;;9.43;3.03;;;;;;;-144.99;100.00;67352.69;5094616;28;20182;-77
2023/11/19 07:23:14;;;;;;;5.67;3.40;;;;;;;-144.99;100.00;67352.69;5102755;28;20256;-76
2023/11/19 07:25:39;;;;;;;5.90;2.47;;;;;;;-144.99;100.00;67352.69;5109157;28;20208;-76
2023/11/19 07:28:05;;;;;;;13.13;4.93;;;;;;;-144.99;100.00;67352.69;5114801;28;20181;-76
2023/11/19 07:30:30;;;;;;;7.77;4.77;;;;;;;-144.99;100.00;67352.69;5114719;28;20216;-77
2023/11/19 07:32:55;;;;;;;13.57;3.47;;;;;;;-144.99;100.00;67352.69;5114933;28;20535;-76
2023/11/19 07:35:21;;;;;;;7.63;4.33;;;;;;;-144.99;100.00;67352.69;5114607;28;20760;-76
2023/11/19 07:37:47;;;;;;;4.50;3.23;;;;;;;-144.99;100.00;67352.69;5114535;28;20673;-77
2023/11/19 07:40:13;;;;;;;15.80;4.30;;;;;;;-144.99;100.00;67352.69;5095405;28;20182;-77
2023/11/19 07:42:38;;;;;;;5.80;3.93;;;;;;;-144.99;100.00;67352.69;5094241;28;20189;-76
2023/11/19 07:45:05;;;;;;;14.67;4.60;;;;;;;-144.99;100.00;67352.69;5094736;28;20205;-77
2023/11/19 07:47:30;;;;;;;13.00;4.53;;;;;;;-144.99;100.00;67352.69;5094652;28;20548;-77
2023/11/19 07:49:56;;;;;;;11.87;3.87;;;;;;;-144.99;100.00;67352.69;5094218;28;20182;-76
2023/11/19 07:52:21;;;;;;;21.47;3.03;;;;;;;-144.99;100.00;67352.69;5094914;28;20189;-76
2023/11/19 07:54:46;;;;;;;18.43;2.77;;;;;;;-144.99;100.00;67352.69;5093857;28;20266;-75
2023/11/19 07:57:12;;;;;;;6.73;3.37;;;;;;;-144.99;100.00;67352.69;5091519;28;20190;-76
2023/11/19 07:59:37;;;;;;;13.00;3.20;;;;;;;-144.99;100.00;67352.69;5114149;28;20185;-76
2023/11/19 08:02:04;;;;;;;15.27;3.67;;;;;;;-144.99;100.00;67352.69;5114219;28;20263;-76
2023/11/19 08:04:30;;;;;;;14.47;5.07;;;;;;;-144.99;100.00;67352.69;5095649;28;20423;-75
2023/11/19 08:06:55;;;;;;;18.40;4.53;;;;;;;-144.99;100.00;67352.69;5113942;28;20233;-75
2023/11/19 08:09:20;;;;;;;14.10;3.47;;;;;;;-144.99;100.00;67352.69;5114480;28;20177;-76
2023/11/19 08:11:47;;;;;;;11.90;3.70;;;;;;;-144.99;100.00;67352.69;5114625;28;20320;-75
2023/11/19 08:14:12;;;;;;;12.83;3.30;;;;;;;-144.99;100.00;67352.69;5114169;28;20619;-75
2023/11/19 08:16:39;;;;;;;16.40;4.27;;;;;;;-144.99;100.00;67352.69;5114196;28;20259;-75
2023/11/19 08:19:05;;;;;;;11.47;3.97;;;;;;;-144.99;100.00;67352.69;5113204;28;20189;-75
2023/11/19 08:21:30;;;;;;;12.57;3.30;;;;;;;-144.99;100.00;67352.69;5105211;28;20185;-75
2023/11/19 08:23:56;;;;;;;11.83;4.50;;;;;;;-144.99;100.00;67352.69;5119893;22;20636;-79
2023/11/19 08:26:21;;;;;;;14.83;4.13;;;;;;;-144.99;100.00;67352.69;5074286;28;20229;-77
2023/11/19 08:28:47;;;;;;;16.13;4.27;;;;;;;-144.99;100.00;67352.69;5056061;28;20182;-77
2023/11/19 08:31:12;;;;;;;9.93;2.37;;;;;;;-144.99;100.00;67352.69;5073801;28;20570;-78
2023/11/19 08:33:38;;;;;;;9.60;2.73;;;;;;;-144.99;100.00;67352.69;5070051;28;20175;-78
2023/11/19 08:36:04;;;;;;;14.10;3.77;;;;;;;-144.99;100.00;67352.69;5051537;28;20265;-78
2023/11/19 08:38:30;;;;;;;14.23;3.93;;;;;;;-144.99;100.00;67352.69;5070192;28;20183;-77
2023/11/19 08:40:59;;;;;;;11.47;2.80;;;;;;;-144.99;100.00;67352.69;5067059;28;20194;-77
2023/11/19 08:43:26;;;;;;;20.20;3.43;;;;;;;-144.99;100.00;67352.69;5054635;28;20200;-77
2023/11/19 08:45:51;;;;;;;7.13;3.37;;;;;;;-144.99;100.00;67352.69;5063443;28;20265;-77
2023/11/19 08:48:16;;;;;;;13.77;2.87;;;;;;;-144.99;100.00;67352.69;5050579;28;20328;-77
2023/11/19 08:50:42;;;;;;;8.20;3.07;;;;;;;-144.99;100.00;67352.69;5071913;28;20690;-81
2023/11/19 08:53:07;;;;;;;9.43;3.13;;;;;;;-144.99;100.00;67352.69;5055739;28;20542;-77
2023/11/19 08:55:32;;;;;;;9.40;4.40;;;;;;;-144.99;100.00;67352.69;5072803;28;20214;-78
2023/11/19 08:57:58;;;;;;;30.37;4.93;;;;;;;-144.99;100.00;67352.69;5073571;28;20178;-77
2023/11/19 09:00:23;;;;;;;16.27;2.93;;;;;;;-144.99;100.00;67352.69;5055045;28;20190;-77
2023/11/19 09:02:48;;;;;;;10.90;3.67;;;;;;;-144.99;100.00;67352.69;5073333;28;20186;-78
2023/11/19 09:05:14;;;;;;;13.90;3.80;;;;;;;-144.99;100.00;67352.69;5071185;28;20608;-80
2023/11/19 09:07:39;;;;;;;9.90;3.67;;;;;;;-144.99;100.00;67352.69;5070257;28;20186;-78
2023/11/19 09:10:05;;;;;;;19.20;3.50;;;;;;;-144.99;100.00;67352.69;5071287;28;20182;-78
2023/11/19 09:12:31;;;;;;;9.53;2.63;;;;;;;-144.99;100.00;67352.69;5071666;28;20253;-77
2023/11/19 09:14:56;;;;;;;4.07;2.57;;;;;;;-144.99;100.00;67352.69;5069393;28;20230;-77
2023/11/19 09:17:21;;;;;;;22.40;3.90;;;;;;;-144.99;100.00;67352.69;5051283;28;20557;-78
2023/11/19 09:19:46;;;;;;;8.87;3.47;;;;;;;-144.99;100.00;67352.69;5051859;28;20794;-78
2023/11/19 09:22:12;;;;;;;13.23;3.23;;;;;;;-144.99;100.00;67352.69;5070754;28;20216;-77
2023/11/19 09:24:37;;;;;;;7.00;2.67;;;;;;;-144.99;100.00;67352.69;5054382;28;20255;-78
2023/11/19 09:27:03;;;;;;;10.43;3.80;;;;;;;-144.99;100.00;67352.69;5052117;28;20292;-77
2023/11/19 09:29:31;;;;;;;15.17;4.43;;;;;;;-144.99;100.00;67352.69;5068577;28;20202;-77
2023/11/19 09:31:56;;;;;;;11.50;3.87;;;;;;;-144.99;100.00;67352.69;5067953;28;20213;-78
2023/11/19 09:34:22;;;;;;;9.83;4.03;;;;;;;-144.99;100.00;67352.69;5071921;28;20190;-78
2023/11/19 09:36:47;;;;;;;3.37;2.33;;;;;;;-144.99;100.00;67352.69;5053877;28;20277;-78
2023/11/19 09:39:14;;;;;;;14.97;3.40;;;;;;;-144.99;100.00;67352.69;5070700;28;20221;-77
2023/11/19 09:41:40;;;;;;;16.03;4.10;;;;;;;-144.99;100.00;67352.69;5071920;28;20535;-78
2023/11/19 09:44:06;;;;;;;8.77;4.00;;;;;;;-144.99;100.00;67352.69;5070787;28;20251;-77
2023/11/19 09:46:31;;;;;;;5.87;3.10;;;;;;;-144.99;100.00;67352.69;5051541;28;20209;-77
2023/11/19 09:48:59;;;;;;;7.77;2.70;;;;;;;-144.99;100.00;67352.69;5071924;28;20178;-77
2023/11/19 09:51:24;;;;;;;15.53;3.87;;;;;;;-144.99;100.00;67352.69;5072356;28;20182;-78
2023/11/19 09:53:50;;;;;;;14.00;3.93;;;;;;;-144.99;100.00;67352.69;5072226;28;20213;-77
2023/11/19 09:56:16;;;;;;;6.77;3.80;;;;;;;-144.99;100.00;67352.69;5066284;28;20190;-77
2023/11/19 09:58:42;;;;;;;14.27;3.50;;;;;;;-144.99;100.00;67352.69;5071828;28;20178;-78
2023/11/19 10:01:10;;;;;;;19.13;3.67;;;;;;;-144.99;100.00;67352.69;5053269;28;20236;-78
2023/11/19 10:03:39;;;;;;;25.30;4.67;;;;;;;-144.99;100.00;67352.69;5046275;28;20267;-78
2023/11/19 10:06:07;;;;;;;12.60;3.90;;;;;;;-144.99;100.00;67352.69;5047680;28;20183;-78
2023/11/19 10:08:33;;;;;;;20.97;4.87;;;;;;;-144.99;100.00;67352.69;5068479;28;20178;-78
2023/11/19 10:10:59;;;;;;;24.57;5.13;;;;;;;-144.99;100.00;67352.69;5068154;28;20194;-77
2023/11/19 10:13:28;;;;;;;9.33;3.30;;;;;;;-144.99;100.00;67352.69;5068065;28;20179;-78
2023/11/19 10:15:57;;;;;;;12.13;4.47;;;;;;;-144.99;100.00;67352.69;5051115;28;20191;-78
2023/11/19 10:18:26;;;;;;;10.77;3.30;;;;;;;-144.99;100.00;67352.69;5064766;28;20269;-78
2023/11/19 10:20:52;;;;;;;13.50;3.13;;;;;;;-144.99;100.00;67352.69;5050445;28;20768;-78
2023/11/19 10:23:17;;;;;;;6.40;3.57;;;;;;;-144.99;100.00;67352.69;5067712;28;20186;-78
2023/11/19 10:25:42;;;;;;;7.03;3.37;;;;;;;-144.99;100.00;67352.69;5071339;28;20206;-77
2023/11/19 10:28:08;;;;;;;7.87;2.77;;;;;;;-144.99;100.00;67352.69;5067945;28;20565;-78
2023/11/19 10:30:34;;;;;;;13.73;3.33;;;;;;;-144.99;100.00;67352.69;5054416;28;20178;-78
2023/11/19 10:33:05;;;;;;;13.37;4.00;;;;;;;-144.99;100.00;67352.69;5066317;28;20651;-78
2023/11/19 10:35:31;;;;;;;10.70;3.57;;;;;;;-144.99;100.00;67352.69;5072521;28;20198;-78
2023/11/19 10:37:59;;;;;;;13.60;4.53;;;;;;;-144.99;100.00;67352.69;5049166;28;20180;-77
2023/11/19 10:40:39;;;;;;;16.50;4.93;;;;;;;-144.99;100.00;67352.69;5073194;28;20212;-78
2023/11/19 10:43:05;;;;;;;15.90;3.70;;;;;;;-144.99;100.00;67352.69;5053437;28;20553;-78
2023/11/19 10:45:30;;;;;;;12.97;3.33;;;;;;;-144.99;100.00;67352.69;5070844;28;20203;-78
2023/11/19 10:47:57;;;;;;;9.97;3.90;;;;;;;-144.99;100.00;67352.69;5054436;28;20214;-77
2023/11/19 10:50:23;;;;;;;6.50;3.13;;;;;;;-144.99;100.00;67352.69;5076118;28;20186;-77
2023/11/19 10:52:55;;;;;;;8.90;4.20;;;;;;;-144.99;100.00;67352.69;5075835;28;20174;-78
2023/11/19 10:55:27;;;;;;;13.47;4.97;;;;;;;-144.99;100.00;67352.69;5075513;28;20205;-77
2023/11/19 10:57:56;;;;;;;8.50;4.73;;;;;;;-144.99;100.00;67352.69;5075444;28;20220;-78
2023/11/19 11:00:23;;;;;;;20.43;3.83;;;;;;;-144.99;100.00;67352.69;5057835;28;20638;-78
2023/11/19 11:02:54;;;;;;;13.83;3.50;;;;;;;-144.99;100.00;67352.69;5076462;28;20187;-77